Time;durP1;ratioP1;P1;durP2;ratioP2;P2;SDS_P1;SDS_P2;PMS_P1;PMS_P2;Temp;Humidity;BMP_temperature;BMP_pressure;BME280_temperature;BME280_humidity;BME280_pressure;Samples;Min_cycle;Max_cycle;Signal;HPM_P1;HPM_P2
2023/06/15 00:01:07;;;;;;;2.55;1.42;;;15.90;99.90;;;;;;4759665;30;20090;-96
2023/06/15 00:03:36;;;;;;;2.90;1.35;;;16.50;99.90;;;;;;4764696;30;20058;-96
2023/06/15 00:06:10;;;;;;;2.90;1.30;;;15.70;99.90;;;;;;4780246;30;20055;-96
2023/06/15 00:08:36;;;;;;;3.72;1.85;;;15.60;99.90;;;;;;4755093;30;20048;-96
2023/06/15 00:11:03;;;;;;;3.00;1.70;;;15.50;99.90;;;;;;4759651;30;20051;-96
2023/06/15 00:13:29;;;;;;;3.63;1.80;;;15.40;99.90;;;;;;4756814;30;20079;-96
2023/06/15 00:15:55;;;;;;;4.03;1.80;;;15.20;99.90;;;;;;4737077;30;20509;-96
2023/06/15 00:18:21;;;;;;;3.83;1.90;;;15.20;99.90;;;;;;4757497;30;20047;-96
2023/06/15 00:20:51;;;;;;;2.67;1.90;;;15.00;99.90;;;;;;4754961;30;20059;-96
2023/06/15 00:23:17;;;;;;;4.28;1.83;;;14.90;99.90;;;;;;4752481;30;20048;-96
2023/06/15 00:25:50;;;;;;;4.97;2.17;;;14.90;99.90;;;;;;4761927;29;20496;-96
2023/06/15 00:28:17;;;;;;;4.35;1.70;;;14.90;99.90;;;;;;4727248;30;20055;-96
2023/06/15 00:30:43;;;;;;;2.35;1.65;;;14.80;99.90;;;;;;4774570;30;20048;-96
2023/06/15 00:33:09;;;;;;;4.13;1.83;;;14.70;99.90;;;;;;4759836;30;20491;-96
2023/06/15 00:35:35;;;;;;;2.50;1.77;;;14.80;99.90;;;;;;4766542;30;20043;-96
2023/06/15 00:38:03;;;;;;;4.22;1.70;;;14.80;99.90;;;;;;4754713;30;20569;-96
2023/06/15 00:40:29;;;;;;;2.92;1.70;;;14.80;99.90;;;;;;4774838;30;20044;-96
2023/06/15 00:42:55;;;;;;;3.08;1.83;;;14.80;99.90;;;;;;4759546;30;20048;-96
2023/06/15 00:45:24;;;;;;;5.50;2.20;;;14.80;99.90;;;;;;4767884;30;20122;-96
2023/06/15 00:47:50;;;;;;;2.53;1.83;;;14.70;99.90;;;;;;4761403;30;20052;-96
2023/06/15 00:50:19;;;;;;;3.20;1.92;;;14.80;99.90;;;;;;4766542;30;20043;-96
2023/06/15 00:52:51;;;;;;;3.20;1.83;;;14.70;99.90;;;;;;4761942;30;20072;-96
2023/06/15 00:55:18;;;;;;;3.45;1.80;;;14.70;99.90;;;;;;4756088;30;20127;-96
2023/06/15 00:57:49;;;;;;;4.15;2.33;;;14.70;99.90;;;;;;4758758;30;20067;-96
2023/06/15 01:00:16;;;;;;;3.28;1.95;;;14.70;99.90;;;;;;4766996;30;20102;-96
2023/06/15 01:02:43;;;;;;;3.33;1.92;;;14.70;99.90;;;;;;4756912;30;20052;-96
2023/06/15 01:05:16;;;;;;;4.63;2.03;;;14.80;99.90;;;;;;4754014;30;20048;-96
2023/06/15 01:07:47;;;;;;;4.70;2.03;;;14.80;99.90;;;;;;4770677;30;20087;-96
2023/06/15 01:10:16;;;;;;;3.42;2.00;;;14.80;99.90;;;;;;4780772;30;20039;-96
2023/06/15 01:12:45;;;;;;;3.92;1.80;;;14.80;99.90;;;;;;4767418;30;20508;-96
2023/06/15 01:15:12;;;;;;;3.78;1.67;;;14.80;99.90;;;;;;4756100;30;20066;-96
2023/06/15 01:17:45;;;;;;;2.33;2.10;;;14.80;99.90;;;;;;4780969;30;20055;-96
2023/06/15 01:20:27;;;;;;;2.72;2.25;;;14.50;99.90;;;;;;4765872;30;20064;-96
2023/06/15 01:22:55;;;;;;;4.50;2.17;;;14.40;99.90;;;;;;4746028;30;20043;-96
2023/06/15 01:25:29;;;;;;;3.47;2.10;;;14.80;99.90;;;;;;4764194;30;20051;-96
2023/06/15 01:28:03;;;;;;;2.83;2.10;;;14.70;99.90;;;;;;4742277;30;20060;-96
2023/06/15 01:30:33;;;;;;;2.10;1.67;;;14.60;99.90;;;;;;4758084;30;20052;-96
2023/06/15 01:33:02;;;;;;;3.28;2.17;;;14.50;99.90;;;;;;4756742;30;20044;-96
2023/06/15 01:35:28;;;;;;;4.07;2.13;;;14.50;99.90;;;;;;4757389;30;20124;-96
2023/06/15 01:37:54;;;;;;;3.45;2.10;;;14.40;99.90;;;;;;4764113;30;20101;-96
2023/06/15 01:40:20;;;;;;;4.13;2.40;;;14.30;99.90;;;;;;4733109;30;20054;-96
2023/06/15 01:42:48;;;;;;;4.30;2.10;;;14.30;99.90;;;;;;4752944;30;20087;-96
2023/06/15 01:45:17;;;;;;;3.63;1.80;;;14.30;99.90;;;;;;4747352;30;20504;-96
2023/06/15 01:47:46;;;;;;;4.32;2.50;;;14.20;99.90;;;;;;4763334;30;20051;-96
2023/06/15 01:51:21;;;;;;;3.15;2.13;;;14.20;99.90;;;;;;4746547;30;20044;-96
2023/06/15 01:53:57;;;;;;;3.70;2.50;;;14.20;99.90;;;;;;4746080;30;20079;-96
2023/06/15 01:56:23;;;;;;;7.18;2.10;;;14.10;99.90;;;;;;4716106;30;20043;-96
2023/06/15 01:58:50;;;;;;;4.03;2.33;;;14.20;99.90;;;;;;4746907;30;20040;-96
2023/06/15 02:01:16;;;;;;;5.57;2.40;;;14.20;99.90;;;;;;4759229;30;20051;-96
2023/06/15 02:03:42;;;;;;;3.95;2.20;;;14.20;99.90;;;;;;4758918;30;20047;-96
2023/06/15 02:06:08;;;;;;;4.20;2.28;;;14.20;99.90;;;;;;4746829;30;20054;-96
2023/06/15 02:08:34;;;;;;;2.08;1.88;;;14.20;99.90;;;;;;4760171;30;20079;-96
2023/06/15 02:11:00;;;;;;;4.60;2.50;;;14.20;99.90;;;;;;4755145;30;20496;-96
2023/06/15 02:13:26;;;;;;;3.58;2.53;;;14.10;99.90;;;;;;4755194;30;20086;-96
2023/06/15 02:15:51;;;;;;;3.50;1.85;;;14.10;99.90;;;;;;4755214;30;20040;-96
2023/06/15 02:18:18;;;;;;;4.88;3.03;;;13.90;99.90;;;;;;4754885;30;20060;-96
2023/06/15 02:20:44;;;;;;;4.35;2.28;;;14.20;99.90;;;;;;4744867;30;20043;-96
2023/06/15 02:23:11;;;;;;;3.25;2.20;;;13.80;99.90;;;;;;4757068;30;20070;-96
2023/06/15 02:25:38;;;;;;;3.30;2.17;;;14.10;99.90;;;;;;4766405;29;20373;-96
2023/06/15 02:28:04;;;;;;;5.18;2.35;;;14.10;99.90;;;;;;4754905;29;20059;-96
2023/06/15 02:30:30;;;;;;;3.10;2.45;;;14.10;99.90;;;;;;4771200;30;20043;-96
2023/06/15 02:33:02;;;;;;;3.67;2.10;;;14.10;99.90;;;;;;4764884;30;20075;-96
2023/06/15 02:35:28;;;;;;;3.63;2.30;;;14.00;99.90;;;;;;4757161;30;20826;-96
2023/06/15 02:37:55;;;;;;;4.28;2.50;;;14.10;99.90;;;;;;4768792;30;20052;-96
2023/06/15 02:40:21;;;;;;;3.83;2.60;;;14.10;99.90;;;;;;4775678;30;20055;-96
2023/06/15 02:42:47;;;;;;;7.88;2.85;;;14.10;99.90;;;;;;4777867;30;20060;-96
2023/06/15 02:45:13;;;;;;;3.42;2.53;;;14.10;99.90;;;;;;4742913;30;20044;-96
2023/06/15 02:47:42;;;;;;;4.35;2.50;;;14.10;99.90;;;;;;4754356;30;20058;-96
2023/06/15 02:50:09;;;;;;;3.60;2.63;;;14.10;99.90;;;;;;4758653;30;20044;-96
2023/06/15 02:52:36;;;;;;;2.78;2.22;;;14.10;99.90;;;;;;4754766;30;20047;-96
2023/06/15 02:55:03;;;;;;;3.22;2.50;;;14.10;99.90;;;;;;4754419;30;20119;-96
2023/06/15 02:57:29;;;;;;;4.68;2.67;;;14.10;99.90;;;;;;4751125;30;20055;-96
2023/06/15 02:59:55;;;;;;;4.50;2.30;;;14.10;99.90;;;;;;4762844;30;20126;-96
2023/06/15 03:02:21;;;;;;;4.65;2.40;;;14.10;99.90;;;;;;4778801;29;20127;-96
2023/06/15 03:04:51;;;;;;;4.30;2.50;;;14.20;99.90;;;;;;4753218;30;20051;-96
2023/06/15 03:07:20;;;;;;;5.28;2.50;;;14.20;99.90;;;;;;4724237;30;20509;-96
2023/06/15 03:09:52;;;;;;;3.35;2.80;;;14.20;99.90;;;;;;4758379;29;20393;-96
2023/06/15 03:12:19;;;;;;;5.75;2.30;;;14.20;99.90;;;;;;4752963;30;20051;-96
2023/06/15 03:14:49;;;;;;;4.53;2.83;;;14.20;99.90;;;;;;4754093;30;20131;-96
2023/06/15 03:17:18;;;;;;;5.68;3.15;;;14.10;99.90;;;;;;4754303;30;20139;-96
2023/06/15 03:19:47;;;;;;;5.70;2.40;;;14.10;99.90;;;;;;4752447;30;20044;-96
2023/06/15 03:22:14;;;;;;;4.63;2.70;;;14.10;99.90;;;;;;4744390;30;20048;-96
2023/06/15 03:24:41;;;;;;;4.25;2.53;;;14.00;99.90;;;;;;4754044;30;20488;-96
2023/06/15 03:27:10;;;;;;;3.50;2.58;;;14.00;99.90;;;;;;4754419;30;20090;-96
2023/06/15 03:29:39;;;;;;;5.05;2.60;;;13.80;99.90;;;;;;4757901;30;20048;-96
2023/06/15 03:32:08;;;;;;;3.47;2.70;;;13.90;99.90;;;;;;4783948;29;20048;-96
2023/06/15 03:34:38;;;;;;;4.63;3.15;;;13.90;99.90;;;;;;4747843;30;20078;-96
2023/06/15 03:37:05;;;;;;;3.83;2.95;;;13.90;99.90;;;;;;4752051;30;20104;-96
2023/06/15 03:39:31;;;;;;;;;;;13.90;99.90;;;;;;4773588;30;20054;-96
2023/06/15 03:41:57;;;;;;;5.32;2.90;;;13.90;99.90;;;;;;4774172;30;19925;-96
2023/06/15 03:44:30;;;;;;;3.70;3.13;;;13.90;99.90;;;;;;4749757;30;20403;-96
2023/06/15 03:46:56;;;;;;;3.63;2.55;;;14.00;99.90;;;;;;4739238;30;20154;-96
2023/06/15 03:49:25;;;;;;;5.32;2.90;;;14.00;99.90;;;;;;4751070;30;20198;-96
2023/06/15 03:51:51;;;;;;;4.38;2.83;;;14.00;99.90;;;;;;4739674;30;20103;-96
2023/06/15 03:54:17;;;;;;;5.20;2.88;;;14.10;99.90;;;;;;4749696;30;20446;-95
2023/06/15 03:56:44;;;;;;;2.80;2.47;;;14.10;99.90;;;;;;4724559;30;20396;-96
2023/06/15 03:59:09;;;;;;;7.22;2.85;;;14.20;99.90;;;;;;4766473;30;20048;-96
2023/06/15 04:01:42;;;;;;;5.22;2.92;;;14.20;99.90;;;;;;4752139;30;20046;-96
2023/06/15 04:04:08;;;;;;;4.50;2.95;;;14.20;99.90;;;;;;4740942;30;20052;-96
2023/06/15 04:06:35;;;;;;;3.10;2.35;;;14.20;99.90;;;;;;4714763;30;20052;-96
2023/06/15 04:09:03;;;;;;;3.92;3.38;;;14.20;99.90;;;;;;4735837;30;20051;-96
2023/06/15 04:11:29;;;;;;;4.93;2.92;;;14.20;99.90;;;;;;4739337;30;20472;-96
2023/06/15 04:13:57;;;;;;;3.67;2.95;;;14.20;99.90;;;;;;4739685;30;20123;-96
2023/06/15 04:16:23;;;;;;;4.18;2.95;;;14.30;99.90;;;;;;4740330;30;20540;-96
2023/06/15 04:18:51;;;;;;;3.50;2.80;;;14.30;99.90;;;;;;4741443;30;20142;-96
2023/06/15 04:21:17;;;;;;;3.65;2.28;;;14.50;99.90;;;;;;4749016;30;20054;-96
2023/06/15 04:23:43;;;;;;;6.93;3.35;;;14.40;99.90;;;;;;4763621;30;20056;-96
2023/06/15 04:26:09;;;;;;;3.40;2.85;;;14.50;99.90;;;;;;4768848;30;20532;-96
2023/06/15 04:28:38;;;;;;;4.10;2.97;;;14.40;99.90;;;;;;4743607;30;20056;-96
2023/06/15 04:31:17;;;;;;;8.30;3.20;;;14.30;99.90;;;;;;4733717;30;20050;-96
2023/06/15 04:33:44;;;;;;;5.85;3.05;;;14.30;99.90;;;;;;4750228;30;20052;-96
2023/06/15 04:36:15;;;;;;;3.25;2.50;;;14.30;99.90;;;;;;4757304;30;20400;-96
2023/06/15 04:38:48;;;;;;;4.15;2.40;;;14.30;99.90;;;;;;4737002;30;20063;-96
2023/06/15 04:41:14;;;;;;;4.75;2.90;;;14.30;99.90;;;;;;4751346;30;20048;-89
2023/06/15 04:43:40;;;;;;;5.82;3.45;;;14.20;99.90;;;;;;4770166;30;20043;-88
2023/06/15 04:46:06;;;;;;;6.68;2.67;;;14.30;99.90;;;;;;4740878;30;20074;-89
2023/06/15 04:48:32;;;;;;;3.33;2.80;;;14.30;99.90;;;;;;4733163;30;20043;-87
2023/06/15 04:50:59;;;;;;;3.92;3.10;;;14.30;99.90;;;;;;4739269;30;20552;-86
2023/06/15 04:53:25;;;;;;;5.25;3.30;;;14.30;99.90;;;;;;4756593;30;20039;-90
2023/06/15 04:55:51;;;;;;;3.40;2.70;;;14.40;99.90;;;;;;4727222;30;20050;-90
2023/06/15 04:58:18;;;;;;;4.32;2.63;;;14.50;99.90;;;;;;4757050;30;20059;-89
2023/06/15 05:00:43;;;;;;;3.63;3.13;;;14.50;99.90;;;;;;4754076;30;20151;-89
2023/06/15 05:03:11;;;;;;;5.13;3.33;;;14.60;99.90;;;;;;4737258;30;20123;-87
2023/06/15 05:05:36;;;;;;;3.78;3.00;;;14.70;99.90;;;;;;4759673;30;20141;-91
2023/06/15 05:08:03;;;;;;;4.13;2.60;;;14.90;99.90;;;;;;4758402;30;20040;-89
2023/06/15 05:10:29;;;;;;;4.05;2.63;;;15.00;99.90;;;;;;4742312;30;20040;-90
2023/06/15 05:12:55;;;;;;;6.70;2.78;;;15.20;99.90;;;;;;4763096;30;20047;-89
2023/06/15 05:15:20;;;;;;;3.92;2.80;;;15.30;99.90;;;;;;4741910;30;20048;-90
2023/06/15 05:17:46;;;;;;;4.15;3.10;;;15.40;99.90;;;;;;4759857;30;20126;-89
2023/06/15 05:20:14;;;;;;;3.78;2.50;;;15.60;99.90;;;;;;4763281;30;20040;-88
2023/06/15 05:22:40;;;;;;;4.13;2.65;;;15.70;99.90;;;;;;4747619;30;20047;-93
2023/06/15 05:25:06;;;;;;;4.85;2.60;;;15.90;99.90;;;;;;4747667;30;20155;-92
2023/06/15 05:27:35;;;;;;;7.43;2.95;;;16.10;99.90;;;;;;4750666;30;20669;-91
2023/06/15 05:30:01;;;;;;;11.30;2.75;;;16.20;99.90;;;;;;4775844;29;20068;-90
2023/06/15 05:32:27;;;;;;;3.47;2.40;;;16.40;99.90;;;;;;4757822;29;20040;-92
2023/06/15 05:34:53;;;;;;;5.35;2.40;;;16.50;99.90;;;;;;4763181;29;20035;-90
2023/06/15 05:37:18;;;;;;;4.88;2.47;;;16.70;99.90;;;;;;4777150;29;20102;-91
2023/06/15 05:39:46;;;;;;;5.05;2.35;;;16.80;99.90;;;;;;4760690;29;20031;-82
2023/06/15 05:42:11;;;;;;;3.65;2.10;;;16.90;99.90;;;;;;4756066;30;20044;-91
2023/06/15 05:44:37;;;;;;;2.97;2.05;;;17.10;99.90;;;;;;4767464;30;20107;-92
2023/06/15 05:47:03;;;;;;;6.93;2.30;;;17.20;99.90;;;;;;4747636;30;20043;-91
2023/06/15 05:49:29;;;;;;;4.50;2.47;;;17.40;99.90;;;;;;4745773;30;20040;-92
2023/06/15 05:51:55;;;;;;;3.63;2.15;;;17.60;99.90;;;;;;4736356;30;20124;-93
2023/06/15 05:54:21;;;;;;;6.82;2.95;;;18.20;99.90;;;;;;4755690;30;20126;-92
2023/06/15 05:56:46;;;;;;;4.25;1.90;;;18.70;99.90;;;;;;4719936;30;20041;-92
2023/06/15 05:59:13;;;;;;;4.32;2.25;;;19.50;99.90;;;;;;4755184;30;20040;-91
2023/06/15 06:01:39;;;;;;;3.88;2.28;;;20.00;99.90;;;;;;4740701;30;20043;-93
2023/06/15 06:04:05;;;;;;;3.80;2.20;;;20.30;99.90;;;;;;4737791;30;20128;-92
2023/06/15 06:06:30;;;;;;;4.47;1.90;;;20.30;99.90;;;;;;4756142;30;20481;-93
2023/06/15 06:08:56;;;;;;;3.97;1.75;;;20.20;99.90;;;;;;4726340;30;20071;-92
2023/06/15 06:11:22;;;;;;;3.20;1.88;;;20.20;99.90;;;;;;4739358;30;20052;-92
2023/06/15 06:13:47;;;;;;;3.63;1.85;;;20.50;99.90;;;;;;4740349;30;20047;-93
2023/06/15 06:16:14;;;;;;;3.22;1.63;;;20.80;99.90;;;;;;4733075;30;20156;-93
2023/06/15 06:18:40;;;;;;;8.73;1.95;;;20.90;99.90;;;;;;4744643;30;20184;-92
2023/06/15 06:21:06;;;;;;;2.92;1.40;;;21.60;99.90;;;;;;4738079;30;20080;-93
2023/06/15 06:23:32;;;;;;;2.05;1.38;;;22.10;99.90;;;;;;4718991;30;20461;-93
2023/06/15 06:25:59;;;;;;;3.25;1.73;;;22.10;99.90;;;;;;4737539;30;20058;-93
2023/06/15 06:28:25;;;;;;;3.35;1.52;;;22.10;99.90;;;;;;4746622;30;20052;-93
2023/06/15 06:30:51;;;;;;;2.70;1.33;;;21.90;99.90;;;;;;4723040;30;20654;-92
2023/06/15 06:33:16;;;;;;;4.82;1.30;;;21.70;99.90;;;;;;4744210;30;20047;-92
2023/06/15 06:35:42;;;;;;;5.65;1.55;;;21.50;99.90;;;;;;4721576;30;20039;-93
2023/06/15 06:38:08;;;;;;;2.38;1.60;;;21.30;99.90;;;;;;4737923;30;20052;-92
2023/06/15 06:40:33;;;;;;;5.10;1.52;;;21.10;99.90;;;;;;4741183;30;20059;-93
2023/06/15 06:42:59;;;;;;;3.10;1.25;;;21.00;99.90;;;;;;4740958;30;20052;-92
2023/06/15 06:45:31;;;;;;;2.08;1.50;;;20.90;99.90;;;;;;4772140;29;20027;-92
2023/06/15 06:47:57;;;;;;;3.78;1.50;;;20.90;99.90;;;;;;4748686;30;20046;-91
2023/06/15 06:50:22;;;;;;;1.42;1.20;;;21.10;99.90;;;;;;4748568;30;20052;-93
2023/06/15 06:52:48;;;;;;;2.30;1.20;;;21.70;99.90;;;;;;4782882;29;20079;-92
2023/06/15 06:55:14;;;;;;;4.60;1.13;;;23.00;99.90;;;;;;4778771;29;20112;-93
2023/06/15 06:57:40;;;;;;;2.40;1.15;;;25.50;96.70;;;;;;4758230;29;20052;-93
2023/06/15 07:00:07;;;;;;;1.95;1.23;;;25.50;96.50;;;;;;4766900;30;20064;-93
2023/06/15 07:02:32;;;;;;;;;;;26.50;92.90;;;;;;4742246;30;20043;-93
2023/06/15 07:04:58;;;;;;;3.47;1.10;;;26.90;81.00;;;;;;4741865;30;19928;-93
2023/06/15 07:07:25;;;;;;;5.30;1.40;;;27.60;87.30;;;;;;4760737;30;20140;-94
2023/06/15 07:09:51;;;;;;;2.67;1.40;;;28.30;83.70;;;;;;4744329;30;20127;-94
2023/06/15 07:12:17;;;;;;;3.70;1.60;;;28.80;76.40;;;;;;4737652;30;20126;-93
2023/06/15 07:14:42;;;;;;;2.37;1.20;;;28.90;76.60;;;;;;4739947;30;20043;-94
2023/06/15 07:17:08;;;;;;;2.47;1.07;;;29.30;74.10;;;;;;4742397;30;20059;-94
2023/06/15 07:19:34;;;;;;;4.13;1.60;;;29.60;72.00;;;;;;4731733;30;20051;-93
2023/06/15 07:22:00;;;;;;;2.17;1.40;;;29.90;70.10;;;;;;4742406;30;20082;-93
2023/06/15 07:24:26;;;;;;;2.83;1.23;;;30.20;69.20;;;;;;4753513;30;20051;-93
2023/06/15 07:26:51;;;;;;;4.00;1.60;;;30.30;68.00;;;;;;4722818;30;20040;-93
2023/06/15 07:29:20;;;;;;;3.00;1.37;;;30.30;67.10;;;;;;4755274;30;20138;-94
2023/06/15 07:32:08;;;;;;;5.45;1.27;;;30.40;65.90;;;;;;4785038;29;20402;-35
2023/06/15 07:34:40;;;;;;;5.00;1.20;;;30.10;64.60;;;;;;4800654;29;20446;-35
2023/06/15 07:37:09;;;;;;;5.38;1.40;;;30.20;62.50;;;;;;4803806;29;20456;-35
2023/06/15 07:39:36;;;;;;;6.18;1.48;;;30.40;63.20;;;;;;4804868;29;20080;-35
2023/06/15 07:42:15;;;;;;;4.30;1.08;;;30.40;63.00;;;;;;4797858;29;20054;-35
2023/06/15 07:45:12;;;;;;;3.55;0.75;;;30.60;63.00;;;;;;4793850;29;20415;-35
2023/06/15 07:51:27;;;;;;;3.60;1.08;;;30.90;60.50;;;;;;4748378;29;20543;-35
2023/06/15 08:12:30;;;;;;;5.03;1.25;;;29.60;57.70;;;;;;5352824;24;20057;-96
2023/06/15 08:15:29;;;;;;;5.82;1.15;;;29.40;56.80;;;;;;4761919;29;20032;-96
2023/06/15 08:17:57;;;;;;;5.13;1.10;;;29.10;56.60;;;;;;4761405;29;20051;-96
2023/06/15 09:14:28;;;;;;;4.25;1.23;;;27.30;59.00;;;;;;5822813;24;20034;31
2023/06/15 09:18:16;;;;;;;;;;;;;;;;;;;;;
2023/06/15 09:58:56;;;;;;;2.45;1.10;;;27.90;53.20;;;;;;5797763;24;20112;31
2023/06/15 10:01:49;;;;;;;2.80;1.10;;;27.90;55.10;;;;;;4808714;29;20038;-96
2023/06/15 10:04:25;;;;;;;4.35;1.10;;;27.50;52.10;;;;;;4803214;29;20138;-96
2023/06/15 10:07:00;;;;;;;1.73;0.98;;;27.50;53.40;;;;;;4812185;29;20042;-96
2023/06/15 10:09:39;;;;;;;2.25;0.90;;;27.50;53.40;;;;;;5067140;24;20935;-96
2023/06/15 10:12:13;;;;;;;1.33;1.00;;;27.60;53.40;;;;;;4772332;29;20118;-96
2023/06/15 10:50:21;;;;;;;3.47;1.02;;;27.90;52.00;;;;;;4815986;24;20091;-96
2023/06/15 10:52:51;;;;;;;3.83;0.98;;;28.00;51.20;;;;;;4815366;29;20034;-96
2023/06/15 11:05:22;;;;;;;5.53;1.20;;;28.30;52.20;;;;;;5477315;24;20825;-96
2023/06/15 11:50:57;;;;;;;3.72;1.10;;;27.20;52.70;;;;;;4958479;24;20051;-96
2023/06/15 11:53:23;;;;;;;1.92;1.20;;;27.40;52.40;;;;;;4740671;30;20115;-96
2023/06/15 11:56:17;;;;;;;1.97;1.23;;;27.50;52.20;;;;;;4773678;29;20052;-96
2023/06/15 12:35:59;;;;;;;3.95;1.20;;;26.50;50.40;;;;;;5127868;24;20047;-96
2023/06/15 12:38:37;;;;;;;7.05;1.50;;;26.50;52.20;;;;;;4792361;24;20075;-96
2023/06/15 12:41:21;;;;;;;3.22;1.63;;;26.40;52.00;;;;;;4765102;29;20111;-96
2023/06/15 12:43:49;;;;;;;1.98;1.13;;;26.50;52.00;;;;;;4778101;30;20054;-96
2023/06/15 12:46:19;;;;;;;2.92;1.48;;;26.40;52.80;;;;;;4788455;30;20056;-96
2023/06/15 12:49:02;;;;;;;2.03;1.13;;;26.40;52.20;;;;;;4775707;30;20032;-96
2023/06/15 12:51:49;;;;;;;1.75;1.20;;;26.50;52.80;;;;;;4756608;30;20419;-96
2023/06/15 12:54:15;;;;;;;1.70;1.30;;;26.30;52.50;;;;;;4750593;30;20024;-96
2023/06/15 12:56:59;;;;;;;3.90;1.40;;;26.30;52.90;;;;;;4759146;30;20616;-96
2023/06/15 13:00:18;;;;;;;2.17;1.33;;;26.20;52.00;;;;;;4776594;30;20040;-96
2023/06/15 13:02:47;;;;;;;3.60;1.38;;;26.10;53.60;;;;;;4744306;30;20056;-96
2023/06/15 13:05:26;;;;;;;1.67;1.00;;;26.00;54.00;;;;;;4772826;30;20082;-95
2023/06/15 13:08:27;;;;;;;3.13;1.10;;;26.00;54.90;;;;;;4771370;30;20066;-96
2023/06/15 13:11:28;;;;;;;1.38;0.98;;;26.00;57.60;;;;;;4757733;29;20060;-96
2023/06/15 13:14:37;;;;;;;1.70;0.98;;;26.00;58.40;;;;;;4723552;30;20063;-96
2023/06/15 13:18:28;;;;;;;;;;;;;;;;;;;;;
2023/06/15 13:21:50;;;;;;;;;;;;;;;;;;;;;
2023/06/15 14:14:57;;;;;;;2.87;1.20;;;24.60;60.10;;;;;;4787574;30;20059;-96
2023/06/15 14:17:56;;;;;;;3.70;1.30;;;24.60;60.50;;;;;;4782958;29;20035;-96
2023/06/15 14:21:26;;;;;;;1.55;1.10;;;24.60;61.90;;;;;;4749855;29;20037;-96
2023/06/15 14:24:10;;;;;;;2.47;1.15;;;24.60;61.80;;;;;;4736847;30;20041;-96
2023/06/15 14:26:43;;;;;;;3.13;1.20;;;24.50;61.60;;;;;;4735386;30;20125;-96
2023/06/15 14:29:23;;;;;;;1.83;1.08;;;24.50;61.40;;;;;;4722454;30;20168;-96
2023/06/15 14:31:51;;;;;;;3.15;1.10;;;24.40;61.20;;;;;;4742492;30;20049;-96
2023/06/15 14:34:21;;;;;;;1.92;1.17;;;24.50;61.00;;;;;;4713794;30;20118;-96
2023/06/15 14:36:49;;;;;;;3.63;1.17;;;24.40;60.30;;;;;;4728362;30;20040;-95
2023/06/15 14:39:20;;;;;;;3.58;1.42;;;24.40;60.40;;;;;;4739996;30;20082;-96
2023/06/15 14:41:50;;;;;;;2.70;1.20;;;24.20;60.50;;;;;;4747340;30;20045;-96
2023/06/15 14:44:56;;;;;;;4.93;1.40;;;24.40;61.00;;;;;;4745755;30;20166;-96
2023/06/15 14:47:47;;;;;;;2.67;0.98;;;24.30;59.90;;;;;;4754319;30;20047;-96
2023/06/15 14:50:50;;;;;;;1.83;1.10;;;24.30;60.80;;;;;;4767922;30;20047;-96
2023/06/15 14:53:17;;;;;;;2.43;1.60;;;24.30;61.00;;;;;;4755081;30;20044;-96
2023/06/15 14:55:43;;;;;;;4.63;1.10;;;24.30;60.90;;;;;;4747763;30;20042;-96
2023/06/15 14:58:09;;;;;;;3.03;1.40;;;24.40;61.00;;;;;;4753618;30;20431;-96
2023/06/15 15:00:37;;;;;;;4.83;1.20;;;24.50;61.80;;;;;;4731937;30;20048;-96
2023/06/15 15:03:07;;;;;;;2.55;1.25;;;24.30;61.60;;;;;;4748155;30;20474;-96
2023/06/15 15:05:36;;;;;;;4.75;1.30;;;24.30;61.40;;;;;;4768421;29;20031;-96
2023/06/15 15:08:18;;;;;;;1.75;1.02;;;24.30;61.30;;;;;;4776479;30;20086;-96
2023/06/15 15:10:44;;;;;;;1.95;1.05;;;24.30;62.10;;;;;;4764151;30;20060;-96
2023/06/15 15:13:12;;;;;;;1.85;1.08;;;24.20;61.90;;;;;;4750881;30;20056;-96
2023/06/15 15:15:42;;;;;;;2.05;1.00;;;24.20;62.10;;;;;;4753043;30;20581;-96
2023/06/15 15:18:20;;;;;;;2.00;1.00;;;24.20;61.80;;;;;;4749838;30;20051;-96
2023/06/15 15:20:59;;;;;;;2.15;1.20;;;24.10;61.50;;;;;;4758309;30;20042;-96
2023/06/15 15:28:42;;;;;;;2.00;1.20;;;24.20;62.60;;;;;;5561648;24;20602;-96
2023/06/15 15:32:20;;;;;;;2.15;1.08;;;24.00;61.90;;;;;;4791587;29;20143;-96
2023/06/15 15:34:47;;;;;;;3.60;1.15;;;24.10;62.40;;;;;;4806917;29;20055;-96
2023/06/15 15:37:13;;;;;;;2.03;0.95;;;24.10;62.10;;;;;;4809808;29;20062;-96
2023/06/15 15:39:46;;;;;;;1.17;0.90;;;24.10;62.20;;;;;;4802256;29;20047;-96
2023/06/15 15:42:13;;;;;;;2.47;1.00;;;24.10;62.10;;;;;;4795340;29;20043;-97
2023/06/15 15:44:49;;;;;;;1.42;0.80;;;24.10;61.30;;;;;;4803222;29;20078;-96
2023/06/15 15:47:29;;;;;;;2.33;1.20;;;24.00;60.60;;;;;;4776126;29;20046;-96
2023/06/15 15:49:55;;;;;;;1.77;1.00;;;24.00;60.20;;;;;;4802213;29;20113;-96
2023/06/15 15:52:21;;;;;;;2.90;1.08;;;23.90;60.20;;;;;;4779350;29;20031;-96
2023/06/15 15:54:50;;;;;;;3.13;1.10;;;23.90;60.00;;;;;;4793404;29;20047;-96
2023/06/15 15:57:22;;;;;;;1.58;0.90;;;23.80;59.70;;;;;;4809536;29;20488;-96
2023/06/15 15:59:50;;;;;;;2.58;0.80;;;23.90;59.60;;;;;;4813739;29;20058;-96
2023/06/15 16:02:34;;;;;;;1.45;1.05;;;24.10;59.40;;;;;;4775868;29;20047;-96
2023/06/15 16:05:02;;;;;;;3.53;0.95;;;23.80;58.90;;;;;;4787748;30;20076;-91
2023/06/15 16:07:28;;;;;;;2.28;1.33;;;23.90;59.40;;;;;;4777355;29;20047;-94
2023/06/15 16:09:53;;;;;;;3.57;1.13;;;23.90;60.30;;;;;;4799425;29;20566;-94
2023/06/15 16:12:19;;;;;;;1.77;1.00;;;23.90;59.90;;;;;;4769258;29;20039;-91
2023/06/15 16:14:45;;;;;;;5.07;1.05;;;24.00;60.30;;;;;;4775998;29;20116;-90
2023/06/15 16:17:11;;;;;;;2.70;1.10;;;23.90;58.90;;;;;;4785100;29;20051;-96
2023/06/15 16:19:37;;;;;;;3.60;0.87;;;23.90;58.70;;;;;;4778956;29;20117;-93
2023/06/15 16:22:03;;;;;;;2.57;1.03;;;23.70;58.30;;;;;;4793310;29;20074;-93
2023/06/15 16:24:29;;;;;;;1.23;1.00;;;23.60;58.30;;;;;;4775516;29;20081;-92
2023/06/15 16:26:55;;;;;;;1.35;0.80;;;23.60;57.70;;;;;;4773395;29;20464;-93
2023/06/15 16:29:21;;;;;;;1.50;0.90;;;23.50;57.90;;;;;;4766978;29;20090;-96
2023/06/15 16:31:47;;;;;;;2.30;1.30;;;23.50;58.10;;;;;;4800897;29;20081;-95
2023/06/15 16:34:13;;;;;;;4.63;1.07;;;23.40;58.60;;;;;;4789910;29;20468;-94
2023/06/15 16:36:38;;;;;;;2.73;1.17;;;23.40;59.40;;;;;;4799835;29;20042;-93
2023/06/15 16:39:04;;;;;;;1.50;0.77;;;23.40;59.80;;;;;;4779726;29;20084;-96
2023/06/15 16:41:30;;;;;;;2.53;0.90;;;23.40;59.60;;;;;;4763487;29;20047;-93
2023/06/15 16:43:59;;;;;;;3.17;1.10;;;23.40;59.60;;;;;;4776281;29;20542;-92
2023/06/15 16:46:25;;;;;;;1.35;0.82;;;23.40;60.00;;;;;;4770492;29;20086;-92
2023/06/15 16:48:51;;;;;;;2.10;1.08;;;23.40;59.40;;;;;;4800067;29;20050;-92
2023/06/15 16:51:16;;;;;;;1.43;1.00;;;23.40;59.10;;;;;;4804405;29;20034;-92
2023/06/15 16:53:42;;;;;;;1.23;1.00;;;23.30;58.50;;;;;;4799882;29;20034;-93
2023/06/15 16:56:08;;;;;;;3.00;1.07;;;23.40;58.60;;;;;;4789092;29;20129;-93
2023/06/15 16:58:34;;;;;;;5.30;1.13;;;23.40;59.60;;;;;;4780415;29;20049;-85
2023/06/15 17:00:59;;;;;;;1.50;0.90;;;23.40;59.90;;;;;;4758286;29;20082;-92
2023/06/15 17:03:25;;;;;;;1.50;0.93;;;23.40;59.80;;;;;;4763147;29;20487;-91
2023/06/15 17:05:51;;;;;;;1.87;1.03;;;23.40;60.00;;;;;;4792537;29;20369;-91
2023/06/15 17:08:17;;;;;;;1.50;0.98;;;23.40;60.00;;;;;;4772855;29;20039;-92
2023/06/15 17:10:43;;;;;;;1.90;1.00;;;23.40;60.00;;;;;;4776173;29;20054;-90
2023/06/15 17:13:08;;;;;;;1.60;1.07;;;23.30;60.00;;;;;;4755167;30;20047;-92
2023/06/15 17:15:34;;;;;;;3.30;0.80;;;23.30;59.80;;;;;;4759559;29;20834;-92
2023/06/15 17:18:00;;;;;;;1.50;0.80;;;23.30;59.80;;;;;;4777738;29;20059;-92
2023/06/15 17:20:27;;;;;;;2.87;1.20;;;23.30;59.90;;;;;;4785128;29;20042;-94
2023/06/15 17:22:53;;;;;;;2.90;1.10;;;23.40;60.10;;;;;;4784598;29;20530;-92
2023/06/15 17:25:18;;;;;;;3.00;0.90;;;23.40;60.10;;;;;;4791879;29;20043;-91
2023/06/15 17:27:52;;;;;;;2.20;0.90;;;23.50;59.90;;;;;;4794403;29;20501;-95
2023/06/15 17:30:18;;;;;;;2.17;0.90;;;23.50;59.60;;;;;;4766003;29;20043;-92
2023/06/15 17:32:44;;;;;;;1.35;1.00;;;23.60;60.10;;;;;;4775888;29;20039;-93
2023/06/15 17:35:20;;;;;;;1.40;0.87;;;23.60;59.60;;;;;;4786724;29;20046;-96
2023/06/15 17:37:45;;;;;;;3.00;1.05;;;23.60;59.10;;;;;;4782079;29;20046;-96
2023/06/15 17:40:11;;;;;;;2.40;1.07;;;23.70;58.40;;;;;;4790914;29;20528;-94
2023/06/15 17:42:37;;;;;;;3.07;1.10;;;23.70;58.70;;;;;;4784351;29;20054;-95
2023/06/15 17:45:03;;;;;;;6.03;1.00;;;23.60;58.30;;;;;;4752124;29;20039;-91
2023/06/15 17:47:29;;;;;;;3.70;1.20;;;23.60;58.00;;;;;;4784770;29;20043;-92
2023/06/15 17:49:55;;;;;;;1.73;1.02;;;23.40;57.70;;;;;;4757757;29;20111;-94
2023/06/15 17:52:21;;;;;;;2.47;1.00;;;23.30;57.70;;;;;;4749042;29;20046;-96
2023/06/15 17:54:46;;;;;;;1.27;1.10;;;23.20;59.00;;;;;;4778804;29;20483;-94
2023/06/15 17:57:12;;;;;;;1.30;0.83;;;23.10;60.70;;;;;;4761042;30;20070;-93
2023/06/15 17:59:40;;;;;;;2.30;1.00;;;23.10;61.70;;;;;;4756871;29;20513;-91
2023/06/15 18:02:06;;;;;;;3.05;1.20;;;22.90;62.20;;;;;;4760440;29;20048;-93
2023/06/15 18:04:32;;;;;;;1.93;1.13;;;22.90;62.70;;;;;;4747031;29;20042;-93